createdAt,value
2016-12-07T00:00:24.881Z,1022.03
2016-12-07T00:01:24.891Z,1022.01
2016-12-07T00:02:24.901Z,1022.03
2016-12-07T00:03:24.911Z,1022.06
2016-12-07T00:04:24.922Z,1022.07
2016-12-07T00:05:25.174Z,1022.09
2016-12-07T00:06:24.942Z,1022.1
2016-12-07T00:07:24.953Z,1022.12
2016-12-07T00:08:24.963Z,1022.15
2016-12-07T00:09:24.973Z,1022.18
2016-12-07T00:10:24.985Z,1022.2
2016-12-07T00:11:24.996Z,1022.25
2016-12-07T00:12:25.104Z,1022.22
2016-12-07T00:13:25.015Z,1022.21
2016-12-07T00:14:25.025Z,1022.24
2016-12-07T00:15:25.126Z,1022.27
2016-12-07T00:16:25.046Z,1022.29
2016-12-07T00:17:25.057Z,1022.25
2016-12-07T00:18:25.068Z,1022.25
2016-12-07T00:19:25.079Z,1022.25
2016-12-07T00:20:25.088Z,1022.25
2016-12-07T00:21:25.100Z,1022.28
2016-12-07T00:22:25.130Z,1022.3
2016-12-07T00:23:25.219Z,1022.31
2016-12-07T00:24:25.132Z,1022.33
2016-12-07T00:25:25.235Z,1022.31
2016-12-07T00:26:25.155Z,1022.34
2016-12-07T00:27:25.166Z,1022.32
2016-12-07T00:28:25.175Z,1022.28
2016-12-07T00:29:25.185Z,1022.32
2016-12-07T00:30:25.197Z,1022.29
2016-12-07T00:31:25.206Z,1022.26
2016-12-07T00:32:25.217Z,1022.22
2016-12-07T00:33:25.228Z,1022.25
2016-12-07T00:34:25.239Z,1022.26
2016-12-07T00:35:25.249Z,1022.24
2016-12-07T00:36:25.260Z,1022.26
2016-12-07T00:37:25.271Z,1022.25
2016-12-07T00:38:25.280Z,1022.23
2016-12-07T00:39:25.291Z,1022.25
2016-12-07T00:40:25.302Z,1022.18
2016-12-07T00:41:25.313Z,1022.19
2016-12-07T00:42:25.323Z,1022.19
2016-12-07T00:43:25.335Z,1022.19
2016-12-07T00:44:25.344Z,1022.14
2016-12-07T00:45:25.355Z,1022.14
2016-12-07T00:46:25.365Z,1022.12
2016-12-07T00:47:25.376Z,1022.14
2016-12-07T00:48:25.387Z,1022.15
2016-12-07T00:49:25.396Z,1022.11
2016-12-07T00:50:25.407Z,1022.1
2016-12-07T00:51:25.419Z,1022.04
2016-12-07T00:52:25.429Z,1022.02
2016-12-07T00:53:25.439Z,1022.03
2016-12-07T00:54:25.450Z,1022.08
2016-12-07T00:55:25.461Z,1022.08
2016-12-07T00:56:25.473Z,1022.16
2016-12-07T00:57:25.483Z,1022.07
2016-12-07T00:58:25.495Z,1022.13
2016-12-07T00:59:25.505Z,1022.11
2016-12-07T01:00:25.516Z,1022.1
2016-12-07T01:01:25.524Z,1022.09
2016-12-07T01:02:25.536Z,1022.07
2016-12-07T01:03:25.546Z,1022.06
2016-12-07T01:04:25.556Z,1022.06
2016-12-07T01:05:25.568Z,1022.07
2016-12-07T01:06:25.578Z,1022.06
2016-12-07T01:07:25.588Z,1022.08
2016-12-07T01:08:25.599Z,1022.07
2016-12-07T01:09:25.610Z,1022.07
2016-12-07T01:10:25.621Z,1022.07
2016-12-07T01:11:25.631Z,1022.08
2016-12-07T01:12:25.642Z,1022.04
2016-12-07T01:13:25.653Z,1022.02
2016-12-07T01:14:25.665Z,1021.98
2016-12-07T01:15:25.675Z,1022.01
2016-12-07T01:16:25.684Z,1022.03
2016-12-07T01:17:25.695Z,1022.02
2016-12-07T01:18:25.705Z,1022
2016-12-07T01:19:25.716Z,1022.06
2016-12-07T01:20:25.727Z,1022.06
2016-12-07T01:21:25.756Z,1022.05
2016-12-07T01:22:25.748Z,1022.07
2016-12-07T01:23:25.761Z,1022.04
2016-12-07T01:24:25.770Z,1022.04
2016-12-07T01:25:25.780Z,1022.01
2016-12-07T01:26:25.789Z,1022.03
2016-12-07T01:27:25.807Z,1022.04
2016-12-07T01:28:25.811Z,1022.05
2016-12-07T01:29:25.825Z,1022.04
2016-12-07T01:30:25.834Z,1022.02
2016-12-07T01:31:25.843Z,1022.09
2016-12-07T01:32:25.854Z,1022.14
2016-12-07T01:33:25.866Z,1022.13
2016-12-07T01:34:25.875Z,1022.13
2016-12-07T01:35:25.888Z,1022.16
2016-12-07T01:36:25.898Z,1022.12
2016-12-07T01:37:25.905Z,1022.11
2016-12-07T01:38:25.917Z,1022.11
2016-12-07T01:39:25.927Z,1022.11
2016-12-07T01:40:25.981Z,1022.08
2016-12-07T01:41:25.949Z,1022.05
2016-12-07T01:42:26.070Z,1022.04
2016-12-07T01:43:25.971Z,1022.09
2016-12-07T01:44:25.983Z,1022.03
2016-12-07T01:45:25.990Z,1022.08
2016-12-07T01:46:26.003Z,1022.11
2016-12-07T01:47:26.012Z,1022.17
2016-12-07T01:48:26.021Z,1022.15
2016-12-07T01:49:26.030Z,1022.14
2016-12-07T01:50:26.045Z,1022.13
2016-12-07T01:51:26.050Z,1022.08
2016-12-07T01:52:26.061Z,1022.07
2016-12-07T01:53:26.072Z,1022.07
2016-12-07T01:54:26.081Z,1022.05
2016-12-07T01:55:26.090Z,1022.06
2016-12-07T01:56:26.101Z,1022.05
2016-12-07T01:57:26.111Z,1022.06
2016-12-07T01:58:26.121Z,1022.05
2016-12-07T01:59:26.131Z,1022.08
2016-12-07T02:00:26.141Z,1022.1
2016-12-07T02:01:26.152Z,1022.11
2016-12-07T02:02:26.161Z,1022.06
2016-12-07T02:03:26.174Z,1022.1
2016-12-07T02:04:26.184Z,1022.13
2016-12-07T02:05:26.192Z,1022.11
2016-12-07T02:06:26.202Z,1022.15
2016-12-07T02:07:26.213Z,1022.18
2016-12-07T02:08:26.224Z,1022.24
2016-12-07T02:09:26.234Z,1022.27
2016-12-07T02:10:26.248Z,1022.24
2016-12-07T02:11:26.254Z,1022.25
2016-12-07T02:12:26.266Z,1022.31
2016-12-07T02:13:26.275Z,1022.29
2016-12-07T02:14:26.285Z,1022.26
2016-12-07T02:15:26.294Z,1022.25
2016-12-07T02:16:26.307Z,1022.26
2016-12-07T02:17:26.314Z,1022.24
2016-12-07T02:18:26.327Z,1022.24
2016-12-07T02:19:26.335Z,1022.22
2016-12-07T02:20:26.349Z,1022.25
2016-12-07T02:21:26.358Z,1022.29
2016-12-07T02:22:26.368Z,1022.23
2016-12-07T02:23:26.376Z,1022.26
2016-12-07T02:24:26.388Z,1022.24
2016-12-07T02:25:26.397Z,1022.23
2016-12-07T02:26:26.407Z,1022.25
2016-12-07T02:27:26.421Z,1022.26
2016-12-07T02:28:26.430Z,1022.23
2016-12-07T02:29:26.438Z,1022.25
2016-12-07T02:30:26.449Z,1022.25
2016-12-07T02:31:26.458Z,1022.27
2016-12-07T02:32:26.469Z,1022.26
2016-12-07T02:33:26.484Z,1022.24
2016-12-07T02:34:26.489Z,1022.24
2016-12-07T02:35:26.501Z,1022.2
2016-12-07T02:36:26.509Z,1022.22
2016-12-07T02:37:26.520Z,1022.16
2016-12-07T02:38:26.533Z,1022.12
2016-12-07T02:39:26.543Z,1022.1
2016-12-07T02:40:26.552Z,1022.08
2016-12-07T02:41:26.562Z,1022.11
2016-12-07T02:42:26.572Z,1022.06
2016-12-07T02:43:26.582Z,1022.14
2016-12-07T02:44:26.592Z,1022.2
2016-12-07T02:45:26.607Z,1022.17
2016-12-07T02:46:26.612Z,1022.25
2016-12-07T02:47:26.623Z,1022.22
2016-12-07T02:48:26.634Z,1022.18
2016-12-07T02:49:26.642Z,1022.15
2016-12-07T02:50:26.654Z,1022.11
2016-12-07T02:51:26.662Z,1022.07
2016-12-07T02:52:26.677Z,1022.07
2016-12-07T02:53:26.688Z,1022.11
2016-12-07T02:54:26.692Z,1022.1
2016-12-07T02:55:26.704Z,1022.08
2016-12-07T02:56:26.713Z,1022.1
2016-12-07T02:57:26.723Z,1022.03
2016-12-07T02:58:26.733Z,1022.06
2016-12-07T02:59:26.747Z,1022.11
2016-12-07T03:00:26.755Z,1022.11
2016-12-07T03:01:26.769Z,1022.09
2016-12-07T03:02:26.773Z,1022.12
2016-12-07T03:03:26.784Z,1022.08
2016-12-07T03:04:26.800Z,1022.13
2016-12-07T03:05:26.804Z,1022.12
2016-12-07T03:06:26.814Z,1022.09
2016-12-07T03:07:26.825Z,1022.08
2016-12-07T03:08:26.836Z,1022.02
2016-12-07T03:09:26.845Z,1021.98
2016-12-07T03:10:26.856Z,1021.91
2016-12-07T03:11:26.864Z,1021.96
2016-12-07T03:12:26.878Z,1021.94
2016-12-07T03:13:26.883Z,1021.93
2016-12-07T03:14:26.901Z,1021.95
2016-12-07T03:15:26.904Z,1021.97
2016-12-07T03:16:26.921Z,1021.94
2016-12-07T03:17:26.932Z,1021.95
2016-12-07T03:18:26.935Z,1021.95
2016-12-07T03:19:26.949Z,1021.95
2016-12-07T03:20:26.961Z,1021.92
2016-12-07T03:21:26.968Z,1021.93
2016-12-07T03:22:26.977Z,1022
2016-12-07T03:23:26.983Z,1022.02
2016-12-07T03:24:26.996Z,1021.99
2016-12-07T03:25:27.004Z,1021.98
2016-12-07T03:26:27.018Z,1021.97
2016-12-07T03:27:27.024Z,1021.95
2016-12-07T03:28:27.041Z,1021.92
2016-12-07T03:29:27.045Z,1021.88
2016-12-07T03:30:27.059Z,1021.89
2016-12-07T03:31:27.065Z,1021.89
2016-12-07T03:32:27.254Z,1021.86
2016-12-07T03:33:27.145Z,1021.87
2016-12-07T03:34:27.157Z,1021.82
2016-12-07T03:35:27.203Z,1021.81
2016-12-07T03:36:27.115Z,1021.84
2016-12-07T03:37:27.126Z,1021.84
2016-12-07T03:38:27.179Z,1021.86
2016-12-07T03:39:27.189Z,1021.88
2016-12-07T03:40:27.204Z,1021.8
2016-12-07T03:41:27.165Z,1021.8
2016-12-07T03:42:27.175Z,1021.78
2016-12-07T03:43:27.185Z,1021.78
2016-12-07T03:44:27.199Z,1021.81
2016-12-07T03:45:27.210Z,1021.77
2016-12-07T03:46:27.216Z,1021.75
2016-12-07T03:47:27.230Z,1021.7
2016-12-07T03:48:27.235Z,1021.7
2016-12-07T03:49:27.245Z,1021.68
2016-12-07T03:50:27.257Z,1021.68
2016-12-07T03:51:27.266Z,1021.6
2016-12-07T03:52:27.273Z,1021.62
2016-12-07T03:53:27.284Z,1021.63
2016-12-07T03:54:27.294Z,1021.63
2016-12-07T03:55:27.304Z,1021.61
2016-12-07T03:56:27.313Z,1021.62
2016-12-07T03:57:27.324Z,1021.57
2016-12-07T03:58:27.344Z,1021.52
2016-12-07T03:59:27.342Z,1021.5
2016-12-07T04:00:27.352Z,1021.46
2016-12-07T04:01:27.364Z,1021.41
2016-12-07T04:02:27.373Z,1021.33
2016-12-07T04:03:27.386Z,1021.33
2016-12-07T04:04:27.394Z,1021.31
2016-12-07T04:05:27.403Z,1021.27
2016-12-07T04:06:27.413Z,1021.23
2016-12-07T04:07:27.424Z,1021.2
2016-12-07T04:08:27.434Z,1021.17
2016-12-07T04:09:27.446Z,1021.14
2016-12-07T04:10:27.452Z,1021.15
2016-12-07T04:11:27.462Z,1021.15
2016-12-07T04:12:27.473Z,1021.16
2016-12-07T04:13:27.483Z,1021.1
2016-12-07T04:14:27.494Z,1021.11
2016-12-07T04:15:27.503Z,1021.1
2016-12-07T04:16:27.516Z,1021.05
2016-12-07T04:17:27.522Z,1021.05
2016-12-07T04:18:27.531Z,1021.04
2016-12-07T04:19:27.547Z,1021.05
2016-12-07T04:20:27.553Z,1021.03
2016-12-07T04:21:27.561Z,1021.05
2016-12-07T04:22:27.576Z,1021.06
2016-12-07T04:23:27.580Z,1021.03
2016-12-07T04:24:27.592Z,1021.04
2016-12-07T04:25:27.600Z,1021.06
2016-12-07T04:26:27.609Z,1021.01
2016-12-07T04:27:27.620Z,1021.11
2016-12-07T04:28:27.628Z,1021.09
2016-12-07T04:29:27.642Z,1021.13
2016-12-07T04:30:27.648Z,1021.13
2016-12-07T04:31:27.659Z,1021.12
2016-12-07T04:32:27.668Z,1021.13
2016-12-07T04:33:27.683Z,1021.1
2016-12-07T04:34:27.688Z,1021.1
2016-12-07T04:35:27.698Z,1021.12
2016-12-07T04:36:27.708Z,1021.08
2016-12-07T04:37:27.718Z,1021.07
2016-12-07T04:38:27.729Z,1020.98
2016-12-07T04:39:27.742Z,1020.99
2016-12-07T04:40:27.748Z,1021.01
2016-12-07T04:41:27.756Z,1021.01
2016-12-07T04:42:27.767Z,1021.05
2016-12-07T04:43:27.781Z,1021.02
2016-12-07T04:44:27.787Z,1021.02
2016-12-07T04:45:27.796Z,1021.03
2016-12-07T04:46:27.805Z,1021
2016-12-07T04:47:27.814Z,1020.98
2016-12-07T04:48:27.832Z,1020.97
2016-12-07T04:49:27.834Z,1020.91
2016-12-07T04:50:27.843Z,1020.88
2016-12-07T04:51:27.860Z,1020.87
2016-12-07T04:52:27.862Z,1020.85
2016-12-07T04:53:27.873Z,1020.88
2016-12-07T04:54:27.882Z,1020.88
2016-12-07T04:55:27.892Z,1020.9
2016-12-07T04:56:27.902Z,1020.92
2016-12-07T04:57:27.911Z,1020.9
2016-12-07T04:58:27.920Z,1020.86
2016-12-07T04:59:27.930Z,1020.93
2016-12-07T05:00:27.941Z,1020.95
2016-12-07T05:01:27.949Z,1020.96
2016-12-07T05:02:27.960Z,1021.01
2016-12-07T05:03:27.969Z,1021.01
2016-12-07T05:04:27.979Z,1021.05
2016-12-07T05:05:27.991Z,1021.05
2016-12-07T05:06:27.998Z,1021.08
2016-12-07T05:07:28.007Z,1021.06
2016-12-07T05:08:28.019Z,1021.11
2016-12-07T05:09:28.027Z,1021.07
2016-12-07T05:10:28.039Z,1021.09
2016-12-07T05:11:28.047Z,1021.05
2016-12-07T05:12:28.055Z,1021.09
2016-12-07T05:13:28.068Z,1021.12
2016-12-07T05:14:28.080Z,1021.08
2016-12-07T05:15:28.085Z,1021.08
2016-12-07T05:16:28.093Z,1021.09
2016-12-07T05:17:28.103Z,1021.08
2016-12-07T05:18:28.113Z,1021.11
2016-12-07T05:19:28.124Z,1021.09
2016-12-07T05:20:28.132Z,1021.06
2016-12-07T05:21:28.143Z,1021.08
2016-12-07T05:22:28.152Z,1021.03
2016-12-07T05:23:28.167Z,1021.06
2016-12-07T05:24:28.173Z,1021.06
2016-12-07T05:25:28.181Z,1021.08
2016-12-07T05:26:28.192Z,1021.08
2016-12-07T05:27:28.200Z,1021.12
2016-12-07T05:28:28.213Z,1021.05
2016-12-07T05:29:28.218Z,1021.01
2016-12-07T05:30:28.227Z,1021
2016-12-07T05:31:28.238Z,1021
2016-12-07T05:32:28.254Z,1020.97
2016-12-07T05:33:28.257Z,1021
2016-12-07T05:34:28.265Z,1020.96
2016-12-07T05:35:28.276Z,1020.93
2016-12-07T05:36:28.285Z,1020.94
2016-12-07T05:37:28.298Z,1020.92
2016-12-07T05:38:28.307Z,1020.93
2016-12-07T05:39:28.323Z,1020.91
2016-12-07T05:40:28.324Z,1021
2016-12-07T05:41:28.334Z,1020.99
2016-12-07T05:42:28.343Z,1020.98
2016-12-07T05:43:28.352Z,1020.96
2016-12-07T05:44:28.362Z,1021.01
2016-12-07T05:45:28.370Z,1021
2016-12-07T05:46:28.382Z,1021.02
2016-12-07T05:47:28.391Z,1021.01
2016-12-07T05:48:28.400Z,1021.03
2016-12-07T05:49:28.418Z,1021
2016-12-07T05:50:28.419Z,1021.01
2016-12-07T05:51:28.430Z,1021.05
2016-12-07T05:52:28.438Z,1021
2016-12-07T05:53:28.449Z,1021.05
2016-12-07T05:54:28.464Z,1021.04
2016-12-07T05:55:28.469Z,1021.04
2016-12-07T05:56:28.475Z,1021.01
2016-12-07T05:57:28.486Z,1020.98
2016-12-07T05:58:28.496Z,1020.99
2016-12-07T05:59:28.504Z,1020.99
2016-12-07T06:00:28.523Z,1020.98
2016-12-07T06:01:28.524Z,1021.07
2016-12-07T06:02:28.533Z,1021.02
2016-12-07T06:03:28.541Z,1021.02
2016-12-07T06:04:28.551Z,1020.99
2016-12-07T06:05:28.562Z,1021.04
2016-12-07T06:06:28.577Z,1020.99
2016-12-07T06:07:28.586Z,1021
2016-12-07T06:08:28.590Z,1020.97
2016-12-07T06:09:28.600Z,1021
2016-12-07T06:10:28.609Z,1020.98
2016-12-07T06:11:28.617Z,1020.95
2016-12-07T06:12:28.628Z,1020.95
2016-12-07T06:13:28.647Z,1020.95
2016-12-07T06:14:28.649Z,1020.92
2016-12-07T06:15:28.655Z,1020.96
2016-12-07T06:16:28.663Z,1020.89
2016-12-07T06:17:28.674Z,1020.93
2016-12-07T06:18:28.683Z,1020.93
2016-12-07T06:19:28.695Z,1020.91
2016-12-07T06:20:28.703Z,1020.91
2016-12-07T06:21:28.720Z,1020.93
2016-12-07T06:22:28.723Z,1020.89
2016-12-07T06:23:28.734Z,1020.9
2016-12-07T06:24:28.739Z,1020.94
2016-12-07T06:25:28.749Z,1020.94
2016-12-07T06:26:28.758Z,1020.97
2016-12-07T06:27:28.767Z,1020.98
2016-12-07T06:28:28.786Z,1021.01
2016-12-07T06:29:28.787Z,1020.95
2016-12-07T06:30:28.795Z,1020.97
2016-12-07T06:31:28.804Z,1020.96
2016-12-07T06:32:28.813Z,1020.94
2016-12-07T06:33:28.825Z,1020.93
2016-12-07T06:34:28.833Z,1020.93
2016-12-07T06:35:28.842Z,1020.95
2016-12-07T06:36:28.850Z,1020.97
2016-12-07T06:37:28.864Z,1020.96
2016-12-07T06:38:28.876Z,1020.99
2016-12-07T06:39:28.883Z,1020.98
2016-12-07T06:40:28.889Z,1020.95
2016-12-07T06:41:28.896Z,1020.94
2016-12-07T06:42:28.908Z,1020.98
2016-12-07T06:43:28.915Z,1020.95
2016-12-07T06:44:28.927Z,1020.96
2016-12-07T06:45:28.934Z,1020.94
2016-12-07T06:46:28.942Z,1021.02
2016-12-07T06:47:28.951Z,1021.01
2016-12-07T06:48:28.961Z,1020.99
2016-12-07T06:49:28.972Z,1020.99
2016-12-07T06:50:28.990Z,1020.95
2016-12-07T06:51:28.992Z,1020.96
2016-12-07T06:52:28.999Z,1021
2016-12-07T06:53:29.009Z,1021.02
2016-12-07T06:54:29.017Z,1021.01
2016-12-07T06:55:29.026Z,1020.98
2016-12-07T06:56:29.035Z,1021.01
2016-12-07T06:57:29.045Z,1020.99
2016-12-07T06:58:29.054Z,1020.94
2016-12-07T06:59:29.073Z,1020.96
2016-12-07T07:00:29.085Z,1020.94
2016-12-07T07:01:29.082Z,1020.95
2016-12-07T07:02:29.091Z,1020.91
2016-12-07T07:03:29.102Z,1020.87
2016-12-07T07:04:29.110Z,1020.83
2016-12-07T07:05:29.119Z,1020.82
2016-12-07T07:06:29.128Z,1020.81
2016-12-07T07:07:29.136Z,1020.8
2016-12-07T07:08:29.149Z,1020.83
2016-12-07T07:09:29.158Z,1020.77
2016-12-07T07:10:29.174Z,1020.77
2016-12-07T07:12:29.183Z,1020.77
2016-12-07T07:13:29.192Z,1020.79
2016-12-07T07:14:29.201Z,1020.77
2016-12-07T07:15:29.211Z,1020.8
2016-12-07T07:16:29.223Z,1020.77
2016-12-07T07:17:29.230Z,1020.77
2016-12-07T07:18:29.239Z,1020.76
2016-12-07T07:19:29.248Z,1020.78
2016-12-07T07:20:29.258Z,1020.83
2016-12-07T07:21:29.271Z,1020.79
2016-12-07T07:22:29.275Z,1020.81
2016-12-07T07:23:29.288Z,1020.78
2016-12-07T07:24:29.294Z,1020.85
2016-12-07T07:25:29.303Z,1020.84
2016-12-07T07:26:29.313Z,1020.79
2016-12-07T07:27:29.321Z,1020.83
2016-12-07T07:28:29.330Z,1020.83
2016-12-07T07:29:29.340Z,1020.83
2016-12-07T07:30:29.350Z,1020.83
2016-12-07T07:31:29.360Z,1020.84
2016-12-07T07:32:29.379Z,1020.84
2016-12-07T07:33:29.379Z,1020.84
2016-12-07T07:34:29.387Z,1020.84
2016-12-07T07:35:29.396Z,1020.88
2016-12-07T07:36:29.409Z,1020.83
2016-12-07T07:37:29.415Z,1020.84
2016-12-07T07:38:29.427Z,1020.85
2016-12-07T07:39:29.431Z,1020.8
2016-12-07T07:40:29.441Z,1020.76
2016-12-07T07:41:29.450Z,1020.73
2016-12-07T07:42:29.459Z,1020.77
2016-12-07T07:43:29.468Z,1020.79
2016-12-07T07:44:29.480Z,1020.83
2016-12-07T07:45:29.488Z,1020.82
2016-12-07T07:46:29.497Z,1020.8
2016-12-07T07:47:29.506Z,1020.8
2016-12-07T07:48:29.514Z,1020.78
2016-12-07T07:49:29.524Z,1020.82
2016-12-07T07:50:29.536Z,1020.86
2016-12-07T07:51:29.543Z,1020.82
2016-12-07T07:52:29.553Z,1020.84
2016-12-07T07:53:29.562Z,1020.85
2016-12-07T07:54:29.570Z,1020.85
2016-12-07T07:55:29.581Z,1020.83
2016-12-07T07:56:29.589Z,1020.84
2016-12-07T07:57:29.598Z,1020.9
2016-12-07T07:58:29.608Z,1020.87
2016-12-07T07:59:29.626Z,1020.79
2016-12-07T08:00:29.630Z,1020.79
2016-12-07T08:01:29.634Z,1020.79
2016-12-07T08:02:29.781Z,1020.77
2016-12-07T08:03:29.655Z,1020.79
2016-12-07T08:04:29.663Z,1020.78
2016-12-07T08:05:29.672Z,1020.81
2016-12-07T08:06:29.685Z,1020.84
2016-12-07T08:07:29.812Z,1020.81
2016-12-07T08:08:29.703Z,1020.82
2016-12-07T08:09:29.709Z,1020.79
2016-12-07T08:10:29.720Z,1020.77
2016-12-07T08:11:29.727Z,1020.76
2016-12-07T08:12:29.739Z,1020.78
2016-12-07T08:13:29.748Z,1020.76
2016-12-07T08:14:29.757Z,1020.79
2016-12-07T08:15:29.770Z,1020.76
2016-12-07T08:16:29.775Z,1020.74
2016-12-07T08:17:29.784Z,1020.74
2016-12-07T08:18:29.793Z,1020.73
2016-12-07T08:19:29.803Z,1020.76
2016-12-07T08:20:29.816Z,1020.77
2016-12-07T08:21:29.822Z,1020.79
2016-12-07T08:22:29.831Z,1020.8
2016-12-07T08:23:29.841Z,1020.83
2016-12-07T08:24:29.910Z,1020.83
2016-12-07T08:25:29.862Z,1020.84
2016-12-07T08:26:29.868Z,1020.85
2016-12-07T08:27:29.886Z,1020.83
2016-12-07T08:28:29.888Z,1020.8
2016-12-07T08:29:29.899Z,1020.76
2016-12-07T08:30:29.907Z,1020.8
2016-12-07T08:31:29.915Z,1020.79
2016-12-07T08:32:29.926Z,1020.77
2016-12-07T08:33:29.934Z,1020.82
2016-12-07T08:34:29.947Z,1020.81
2016-12-07T08:35:29.954Z,1020.77
2016-12-07T08:36:29.964Z,1020.8
2016-12-07T08:37:29.971Z,1020.74
2016-12-07T08:38:29.983Z,1020.69
2016-12-07T08:39:29.992Z,1020.72
2016-12-07T08:40:30.001Z,1020.72
2016-12-07T08:41:30.013Z,1020.79
2016-12-07T08:42:30.020Z,1020.72
2016-12-07T08:43:30.029Z,1020.78
2016-12-07T08:44:30.145Z,1020.73
2016-12-07T08:45:30.048Z,1020.75
2016-12-07T08:46:30.058Z,1020.74
2016-12-07T08:47:30.069Z,1020.75
2016-12-07T08:48:30.080Z,1020.73
2016-12-07T08:49:30.090Z,1020.72
2016-12-07T08:50:30.098Z,1020.72
2016-12-07T08:51:30.107Z,1020.69
2016-12-07T08:52:30.116Z,1020.7
2016-12-07T08:53:30.129Z,1020.72
2016-12-07T08:54:30.137Z,1020.74
2016-12-07T08:55:30.145Z,1020.76
2016-12-07T08:56:30.155Z,1020.74
2016-12-07T08:57:30.165Z,1020.79
2016-12-07T08:58:30.175Z,1020.79
2016-12-07T08:59:30.184Z,1020.73
2016-12-07T09:00:30.194Z,1020.75
2016-12-07T09:01:30.203Z,1020.75
2016-12-07T09:02:30.212Z,1020.78
2016-12-07T09:03:30.228Z,1020.73
2016-12-07T09:04:30.235Z,1020.76
2016-12-07T09:05:30.246Z,1020.81
2016-12-07T09:06:30.251Z,1020.81
2016-12-07T09:07:30.262Z,1020.8
2016-12-07T09:08:30.274Z,1020.77
2016-12-07T09:09:30.281Z,1020.74
2016-12-07T09:10:30.302Z,1020.81
2016-12-07T09:11:30.301Z,1020.81
2016-12-07T09:12:30.314Z,1020.82
2016-12-07T09:13:30.322Z,1020.79
2016-12-07T09:14:30.331Z,1020.8
2016-12-07T09:15:30.340Z,1020.84
2016-12-07T09:16:30.352Z,1020.85
2016-12-07T09:17:30.360Z,1020.86
2016-12-07T09:18:30.372Z,1020.89
2016-12-07T09:19:30.380Z,1020.88
2016-12-07T09:20:30.388Z,1020.87
2016-12-07T09:21:30.397Z,1020.84
2016-12-07T09:22:30.409Z,1020.76
2016-12-07T09:23:30.418Z,1020.78
2016-12-07T09:24:30.433Z,1020.75
2016-12-07T09:25:30.442Z,1020.73
2016-12-07T09:26:30.450Z,1020.74
2016-12-07T09:27:30.457Z,1020.71
2016-12-07T09:28:30.468Z,1020.7
2016-12-07T09:29:30.476Z,1020.68
2016-12-07T09:30:30.487Z,1020.65
2016-12-07T09:31:30.496Z,1020.66
2016-12-07T09:32:30.506Z,1020.67
2016-12-07T09:33:30.515Z,1020.66
2016-12-07T09:34:30.532Z,1020.7
2016-12-07T09:35:30.536Z,1020.69
2016-12-07T09:36:30.545Z,1020.7
2016-12-07T09:37:30.555Z,1020.71
2016-12-07T09:38:30.565Z,1020.74
2016-12-07T09:39:30.581Z,1020.77
2016-12-07T09:40:30.585Z,1020.74
2016-12-07T09:41:30.596Z,1020.76
2016-12-07T09:42:30.606Z,1020.82
2016-12-07T09:43:30.615Z,1020.79
2016-12-07T09:44:30.624Z,1020.82
2016-12-07T09:45:30.635Z,1020.78
2016-12-07T09:46:30.645Z,1020.85
2016-12-07T09:47:30.654Z,1020.83
2016-12-07T09:48:30.664Z,1020.82
2016-12-07T09:49:30.675Z,1020.77
2016-12-07T09:50:30.684Z,1020.76
2016-12-07T09:51:30.693Z,1020.79
2016-12-07T09:52:30.711Z,1020.79
2016-12-07T09:53:30.715Z,1020.84
2016-12-07T09:54:30.723Z,1020.86
2016-12-07T09:55:30.761Z,1020.87
2016-12-07T09:56:30.744Z,1020.83
2016-12-07T09:57:30.999Z,1020.79
2016-12-07T09:58:30.763Z,1020.74
2016-12-07T09:59:30.774Z,1020.73
2016-12-07T10:00:30.784Z,1020.73
2016-12-07T10:01:30.963Z,1020.73
2016-12-07T10:02:30.806Z,1020.69
2016-12-07T10:03:30.813Z,1020.7
2016-12-07T10:04:30.824Z,1020.63
2016-12-07T10:05:30.838Z,1020.61
2016-12-07T10:06:30.846Z,1020.61
2016-12-07T10:07:30.854Z,1020.63
2016-12-07T10:08:30.962Z,1020.58
2016-12-07T10:09:30.873Z,1020.62
2016-12-07T10:10:30.883Z,1020.59
2016-12-07T10:11:31.096Z,1020.59
2016-12-07T10:12:30.906Z,1020.57
2016-12-07T10:13:30.912Z,1020.55
2016-12-07T10:14:30.923Z,1020.57
2016-12-07T10:15:30.936Z,1020.54
2016-12-07T10:16:30.946Z,1020.55
2016-12-07T10:17:30.957Z,1020.52
2016-12-07T10:18:30.963Z,1020.49
2016-12-07T10:19:30.984Z,1020.46
2016-12-07T10:20:30.983Z,1020.47
2016-12-07T10:21:30.998Z,1020.48
2016-12-07T10:22:31.004Z,1020.48
2016-12-07T10:23:31.014Z,1020.51
2016-12-07T10:24:31.024Z,1020.49
2016-12-07T10:25:31.033Z,1020.49
2016-12-07T10:26:31.045Z,1020.5
2016-12-07T10:27:31.057Z,1020.47
2016-12-07T10:28:31.065Z,1020.46
2016-12-07T10:29:31.076Z,1020.46
2016-12-07T10:30:31.084Z,1020.46
2016-12-07T10:31:31.096Z,1020.47
2016-12-07T10:32:31.118Z,1020.41
2016-12-07T10:33:31.118Z,1020.39
2016-12-07T10:34:31.125Z,1020.41
2016-12-07T10:35:31.144Z,1020.44
2016-12-07T10:36:31.252Z,1020.46
2016-12-07T10:37:31.158Z,1020.41
2016-12-07T10:38:31.165Z,1020.41
2016-12-07T10:39:31.177Z,1020.37
2016-12-07T10:40:31.199Z,1020.41
2016-12-07T10:41:31.195Z,1020.34
2016-12-07T10:42:31.207Z,1020.35
2016-12-07T10:43:31.225Z,1020.32
2016-12-07T10:44:31.227Z,1020.36
2016-12-07T10:45:31.238Z,1020.34
2016-12-07T10:46:31.247Z,1020.3
2016-12-07T10:47:31.262Z,1020.26
2016-12-07T10:48:31.267Z,1020.29
2016-12-07T10:49:31.278Z,1020.29
2016-12-07T10:50:31.289Z,1020.33
2016-12-07T10:51:31.300Z,1020.34
2016-12-07T10:52:31.308Z,1020.3
2016-12-07T10:53:31.323Z,1020.3
2016-12-07T10:54:31.329Z,1020.24
2016-12-07T10:55:31.340Z,1020.25
2016-12-07T10:56:31.349Z,1020.22
2016-12-07T10:57:31.366Z,1020.23
2016-12-07T10:58:31.370Z,1020.17
2016-12-07T10:59:31.471Z,1020.16
2016-12-07T11:00:31.389Z,1020.17
2016-12-07T11:01:31.400Z,1020.14
2016-12-07T11:02:31.411Z,1020.2
2016-12-07T11:03:31.420Z,1020.16
2016-12-07T11:04:31.450Z,1020.18
2016-12-07T11:05:31.441Z,1020.15
2016-12-07T11:06:31.454Z,1020.19
2016-12-07T11:07:31.462Z,1020.2
2016-12-07T11:08:31.472Z,1020.16
2016-12-07T11:09:31.483Z,1020.12
2016-12-07T11:10:31.492Z,1020.08
2016-12-07T11:11:31.513Z,1020.09
2016-12-07T11:12:31.513Z,1020.06
2016-12-07T11:13:31.525Z,1020.04
2016-12-07T11:14:31.533Z,1019.99
2016-12-07T11:15:31.544Z,1019.94
2016-12-07T11:16:31.554Z,1019.88
2016-12-07T11:17:31.574Z,1019.86
2016-12-07T11:18:31.575Z,1019.8
2016-12-07T11:19:31.584Z,1019.78
2016-12-07T11:20:31.593Z,1019.78
2016-12-07T11:21:31.604Z,1019.7
2016-12-07T11:22:31.620Z,1019.75
2016-12-07T11:23:31.636Z,1019.72
2016-12-07T11:24:31.637Z,1019.73
2016-12-07T11:25:31.646Z,1019.7
2016-12-07T11:26:31.659Z,1019.71
2016-12-07T11:27:31.666Z,1019.7
2016-12-07T11:28:31.678Z,1019.73
2016-12-07T11:29:31.689Z,1019.73
2016-12-07T11:30:31.699Z,1019.72
2016-12-07T11:31:31.827Z,1019.69
2016-12-07T11:32:31.718Z,1019.67
2016-12-07T11:33:31.730Z,1019.69
2016-12-07T11:34:31.739Z,1019.74
2016-12-07T11:35:31.776Z,1019.75
2016-12-07T11:36:31.766Z,1019.74
2016-12-07T11:37:31.769Z,1019.75
2016-12-07T11:38:31.781Z,1019.74
2016-12-07T11:39:31.796Z,1019.75
2016-12-07T11:40:31.806Z,1019.72
2016-12-07T11:41:31.812Z,1019.76
2016-12-07T11:42:31.821Z,1019.77
2016-12-07T11:43:31.833Z,1019.81
2016-12-07T11:44:31.842Z,1019.77
2016-12-07T11:45:31.853Z,1019.77
2016-12-07T11:46:31.864Z,1019.77
2016-12-07T11:47:31.872Z,1019.73
2016-12-07T11:48:31.884Z,1019.65
2016-12-07T11:49:31.894Z,1019.66
2016-12-07T11:50:31.904Z,1019.66
2016-12-07T11:51:31.915Z,1019.66
2016-12-07T11:52:31.927Z,1019.66
2016-12-07T11:53:31.937Z,1019.63
2016-12-07T11:54:31.946Z,1019.62
2016-12-07T11:55:31.957Z,1019.6
2016-12-07T11:56:31.967Z,1019.64
2016-12-07T11:57:31.978Z,1019.58
2016-12-07T11:58:31.988Z,1019.56
2016-12-07T11:59:31.999Z,1019.53
2016-12-07T12:00:32.010Z,1019.56
2016-12-07T12:01:32.020Z,1019.54
2016-12-07T12:02:32.032Z,1019.55
2016-12-07T12:03:32.041Z,1019.52
2016-12-07T12:04:32.053Z,1019.53
2016-12-07T12:05:32.064Z,1019.54
2016-12-07T12:06:32.074Z,1019.59
2016-12-07T12:07:32.084Z,1019.53
2016-12-07T12:08:32.096Z,1019.56
2016-12-07T12:09:32.104Z,1019.57